Time;durP1;ratioP1;P1;durP2;ratioP2;P2;SDS_P1;SDS_P2;PMS_P1;PMS_P2;Temp;Humidity;BMP_temperature;BMP_pressure;BME280_temperature;BME280_humidity;BME280_pressure;Samples;Min_cycle;Max_cycle;Signal;HPM_P1;HPM_P2
2021/11/02 00:01:21;;;;;;;3.88;3.03;;;9.50;80.60;;;8.79;67.00;93558.78;4932872;28;20225;-78
2021/11/02 00:03:49;;;;;;;3.20;2.90;;;9.50;80.60;;;8.78;67.18;93552.75;4949577;28;20255;-78
2021/11/02 00:06:16;;;;;;;4.03;2.88;;;9.50;80.60;;;8.78;66.97;93565.81;4957887;28;20380;-79
2021/11/02 00:08:46;;;;;;;3.45;3.10;;;9.50;80.60;;;8.76;67.00;93557.41;4976282;28;20198;-80
2021/11/02 00:11:13;;;;;;;3.33;2.40;;;9.50;80.60;;;8.74;66.94;93563.81;4960429;28;20262;-80
2021/11/02 00:13:45;;;;;;;2.65;2.40;;;9.50;80.60;;;8.70;66.99;93557.44;4941085;28;20257;-79
2021/11/02 00:16:17;;;;;;;3.38;2.53;;;9.40;80.50;;;8.70;67.26;93562.66;4941054;28;20624;-79
2021/11/02 00:18:51;;;;;;;3.65;2.60;;;9.40;80.60;;;8.69;67.01;93563.69;4926064;28;20198;-79
2021/11/02 00:21:18;;;;;;;2.63;2.40;;;9.40;80.50;;;8.66;67.20;93567.50;4948939;29;20243;-79
2021/11/02 00:23:46;;;;;;;3.50;2.50;;;9.40;80.60;;;8.64;67.40;93566.91;4937137;29;20219;-79
2021/11/02 00:26:13;;;;;;;2.90;2.35;;;9.40;80.50;;;8.62;67.21;93567.13;4921427;29;20250;-78
2021/11/02 00:28:41;;;;;;;2.45;2.17;;;9.30;80.40;;;8.61;67.24;93562.13;4936996;28;20578;-79
2021/11/02 00:31:08;;;;;;;3.22;2.30;;;9.30;80.50;;;8.57;67.30;93559.16;4972346;28;20251;-79
2021/11/02 00:33:36;;;;;;;2.50;2.30;;;9.30;80.40;;;8.57;67.18;93559.16;4940222;28;20230;-79
2021/11/02 00:36:03;;;;;;;2.33;2.13;;;9.30;80.50;;;8.56;67.33;93559.38;4940394;28;20242;-79
2021/11/02 00:38:31;;;;;;;3.33;2.42;;;9.30;80.60;;;8.52;67.30;93553.75;4942072;28;20199;-79
2021/11/02 00:40:58;;;;;;;2.80;2.33;;;9.30;80.60;;;8.50;67.20;93553.16;4930241;29;20239;-80
2021/11/02 00:43:26;;;;;;;2.60;2.10;;;9.20;80.60;;;8.48;67.24;93549.94;4955875;29;20318;-79
2021/11/02 00:45:53;;;;;;;2.17;1.98;;;9.20;80.60;;;8.45;67.42;93555.59;4923104;29;20195;-79
2021/11/02 00:48:25;;;;;;;2.13;1.92;;;9.20;80.70;;;8.41;67.40;93557.00;4959348;28;20209;-79
2021/11/02 00:50:54;;;;;;;2.92;2.20;;;9.20;80.70;;;8.40;67.50;93558.00;4956336;28;20207;-79
2021/11/02 00:53:22;;;;;;;2.60;2.13;;;9.20;80.70;;;8.39;67.59;93559.84;4924973;29;20231;-79
2021/11/02 00:55:50;;;;;;;3.10;2.13;;;9.20;80.80;;;8.39;67.79;93559.84;4938305;29;20626;-79
2021/11/02 00:58:20;;;;;;;3.55;2.10;;;9.10;80.80;;;8.37;67.57;93561.84;4922959;29;20246;-79
2021/11/02 01:00:47;;;;;;;2.78;2.22;;;9.10;80.80;;;8.37;67.69;93561.84;4933850;28;20199;-79
2021/11/02 01:03:14;;;;;;;2.70;2.00;;;9.10;80.90;;;8.37;67.89;93561.06;4941578;28;20718;-80
2021/11/02 01:05:42;;;;;;;3.15;2.10;;;9.10;80.90;;;8.36;67.53;93560.28;4973546;28;20656;-79
2021/11/02 01:08:12;;;;;;;3.10;2.20;;;9.10;80.90;;;8.33;67.57;93561.47;4942624;28;20187;-79
2021/11/02 01:10:46;;;;;;;2.33;2.10;;;9.10;80.90;;;8.34;67.65;93572.75;4937605;28;20663;-78
2021/11/02 01:13:14;;;;;;;2.55;1.95;;;9.10;80.90;;;8.33;67.75;93573.75;4923314;29;20203;-79
2021/11/02 01:15:42;;;;;;;2.10;1.90;;;9.00;80.90;;;8.31;67.59;93575.75;4922499;29;20199;-79
2021/11/02 01:18:09;;;;;;;2.10;1.90;;;9.00;80.90;;;8.31;67.64;93573.16;4922430;29;20556;-79
2021/11/02 01:20:38;;;;;;;2.38;1.80;;;9.00;80.90;;;8.28;67.46;93579.59;4938219;28;20195;-78
2021/11/02 01:23:07;;;;;;;2.15;1.70;;;9.00;80.90;;;8.27;67.79;93572.75;4941345;28;20230;-79
2021/11/02 01:25:35;;;;;;;2.28;1.95;;;9.00;80.90;;;8.24;67.61;93577.59;4941276;28;20205;-78
2021/11/02 01:28:05;;;;;;;2.17;1.98;;;9.00;81.00;;;8.25;67.98;93582.66;4941534;28;20202;-79
2021/11/02 01:30:38;;;;;;;2.97;2.00;;;9.00;81.00;;;8.21;67.65;93589.28;4968474;28;20207;-79
2021/11/02 01:33:06;;;;;;;2.70;1.85;;;9.00;81.00;;;8.20;68.05;93577.22;4957402;28;20207;-79
2021/11/02 01:35:38;;;;;;;1.80;1.70;;;9.00;81.00;;;8.18;67.93;93580.06;4941573;28;20670;-79
2021/11/02 01:38:05;;;;;;;1.92;1.83;;;9.00;81.00;;;8.16;68.17;93578.66;4938371;28;20219;-79
2021/11/02 01:40:34;;;;;;;3.55;1.80;;;8.90;81.10;;;8.11;68.25;93573.28;4922055;28;20199;-79
2021/11/02 01:43:03;;;;;;;2.15;1.80;;;8.90;81.00;;;8.11;68.20;93578.50;4938187;29;20661;-79
2021/11/02 01:45:30;;;;;;;2.50;1.83;;;8.90;81.10;;;8.09;68.36;93577.91;4937735;29;20206;-79
2021/11/02 01:48:03;;;;;;;1.90;1.70;;;8.90;81.10;;;8.08;68.35;93573.69;4922980;29;20215;-79
2021/11/02 01:50:39;;;;;;;2.20;2.00;;;8.90;81.10;;;8.07;68.31;93565.06;4933454;28;20260;-79
2021/11/02 01:53:07;;;;;;;2.40;2.00;;;8.90;81.20;;;8.06;68.52;93563.47;4956972;28;20199;-78
2021/11/02 01:55:34;;;;;;;2.45;2.03;;;8.80;81.10;;;8.04;68.61;93559.47;4940905;28;20194;-79
2021/11/02 01:58:03;;;;;;;2.05;1.85;;;8.90;81.30;;;8.06;68.68;93554.84;4940981;28;20250;-79
2021/11/02 02:00:33;;;;;;;2.15;1.95;;;8.80;81.30;;;8.07;68.21;93557.22;4967685;28;20199;-79
2021/11/02 02:03:32;;;;;;;2.10;1.60;;;8.80;81.40;;;8.06;68.07;93554.84;4922341;29;20222;-79
2021/11/02 02:06:25;;;;;;;3.53;1.88;;;8.80;81.50;;;8.01;68.16;93558.06;4921573;29;20231;-79
2021/11/02 02:09:13;;;;;;;2.05;1.83;;;8.80;81.40;;;7.98;68.25;93556.69;4925252;28;20204;-77
2021/11/02 02:12:29;;;;;;;2.00;1.80;;;8.90;81.40;;;7.91;68.15;93549.88;4941217;28;20230;-79
2021/11/02 02:15:15;;;;;;;2.75;1.65;;;8.80;81.30;;;7.86;68.17;93547.91;4989814;28;20195;-78
2021/11/02 02:18:03;;;;;;;1.83;1.55;;;8.70;81.20;;;7.82;68.30;93541.50;4957002;28;20343;-78
2021/11/02 02:21:33;;;;;;;1.83;1.58;;;8.70;81.10;;;7.77;68.26;93555.16;4956317;28;20715;-78
2021/11/02 02:24:37;;;;;;;1.33;1.23;;;8.70;81.20;;;7.71;68.35;93542.94;4933275;29;20227;-78
2021/11/02 02:27:32;;;;;;;2.55;1.40;;;8.60;81.20;;;7.68;68.68;93538.94;4926675;28;20306;-79
2021/11/02 02:30:07;;;;;;;1.83;1.40;;;8.60;81.30;;;7.70;68.58;93546.56;4971120;28;20186;-79
2021/11/02 02:32:43;;;;;;;1.50;1.40;;;8.50;81.20;;;7.70;68.56;93536.13;4957321;28;20239;-78
2021/11/02 02:35:18;;;;;;;1.73;1.60;;;8.50;81.20;;;7.66;68.99;93548.78;4923128;28;20205;-79
2021/11/02 02:37:49;;;;;;;1.63;1.52;;;8.50;81.20;;;7.65;68.65;93522.91;4941105;28;20223;-79
2021/11/02 02:40:19;;;;;;;1.52;1.40;;;8.50;81.20;;;7.65;68.91;93536.75;4966915;28;20198;-79
2021/11/02 02:42:48;;;;;;;2.05;1.50;;;8.50;81.40;;;7.63;68.92;93551.00;4940210;28;20711;-78
2021/11/02 02:45:18;;;;;;;1.40;1.30;;;8.50;81.30;;;7.61;68.66;93547.81;4940677;28;20238;-79
2021/11/02 02:47:49;;;;;;;1.73;1.60;;;8.50;81.30;;;7.58;68.91;93553.44;4940102;28;20321;-79
2021/11/02 02:50:20;;;;;;;1.40;1.30;;;8.40;81.30;;;7.54;69.25;93550.44;4939494;28;20198;-78
2021/11/02 02:52:52;;;;;;;1.45;1.35;;;8.40;81.30;;;7.51;68.93;93543.81;4906455;29;20227;-79
2021/11/02 02:55:21;;;;;;;1.60;1.50;;;8.40;81.30;;;7.46;68.69;93530.59;4936971;29;20214;-79
2021/11/02 02:57:55;;;;;;;1.40;1.30;;;8.40;81.30;;;7.48;68.70;93548.66;4921849;29;20238;-79
2021/11/02 03:00:23;;;;;;;1.33;1.23;;;8.30;81.40;;;7.45;68.77;93546.47;4937060;28;20555;-79
2021/11/02 03:02:51;;;;;;;2.22;1.52;;;8.30;81.50;;;7.42;68.92;93554.69;4939642;28;20281;-79
2021/11/02 03:05:23;;;;;;;1.30;1.20;;;8.30;81.50;;;7.34;68.85;93548.69;4940106;28;20692;-79
2021/11/02 03:07:58;;;;;;;1.30;1.20;;;8.30;81.50;;;7.31;69.05;93538.69;4940736;28;20281;-79
2021/11/02 03:10:26;;;;;;;1.30;1.20;;;8.30;81.40;;;7.31;nan;93540.47;4927421;29;20645;-79
2021/11/02 03:12:58;;;;;;;1.13;1.10;;;8.20;81.50;;;7.31;68.42;93545.69;4922775;29;20249;-79
2021/11/02 03:44:38;;;;;;;1.23;1.10;;;8.00;81.50;;;7.11;69.13;93524.91;4977857;28;20241;-79
2021/11/02 03:50:19;;;;;;;1.30;1.00;;;8.00;81.50;;;7.02;68.91;93535.53;4968021;28;20206;-79
2021/11/02 03:58:51;;;;;;;1.10;1.10;;;7.90;81.40;;;6.91;69.15;93540.56;4938159;28;20660;-78
2021/11/02 05:55:14;;;;;;;1.00;1.00;;;7.20;81.60;;;6.33;69.32;93527.16;4957447;28;20269;-79
2021/11/02 05:57:54;;;;;;;1.30;1.20;;;7.20;81.60;;;6.30;69.38;93530.19;4954531;28;20285;-79
2021/11/02 06:00:29;;;;;;;1.40;1.10;;;7.20;81.60;;;6.28;69.48;93532.19;4940644;28;20214;-79
2021/11/02 06:06:07;;;;;;;1.60;1.40;;;7.10;81.60;;;6.31;69.79;93550.03;4957987;28;20223;-78
2021/11/02 06:29:24;;;;;;;0.82;0.82;;;7.20;82.10;;;6.45;69.76;93540.41;4959161;28;20270;-80
2021/11/02 06:31:58;;;;;;;0.85;0.85;;;7.30;82.20;;;6.43;69.50;93521.56;4940670;28;20309;-79
2021/11/02 06:46:12;;;;;;;1.70;1.60;;;7.40;82.20;;;6.60;69.52;93561.03;4972408;28;20222;-80
2021/11/02 07:19:14;;;;;;;2.58;1.63;;;7.60;82.20;;;6.99;69.13;93571.63;4979483;28;20252;-79
2021/11/02 07:24:38;;;;;;;2.15;1.80;;;7.70;82.50;;;7.11;69.23;93570.00;4956960;28;20293;-81
2021/11/02 07:27:20;;;;;;;2.45;1.95;;;7.80;82.50;;;7.16;69.25;93569.41;4971325;28;20745;-81
2021/11/02 08:50:07;;;;;;;1.60;1.50;;;9.70;82.80;;;9.36;68.61;93576.97;4993719;28;20260;-82
2021/11/02 08:52:36;;;;;;;1.40;1.30;;;9.80;82.80;;;9.43;68.55;93571.66;4961017;28;20244;-80
2021/11/02 08:55:08;;;;;;;1.60;1.50;;;9.90;82.90;;;9.58;69.04;93581.75;4977030;28;20202;-82
2021/11/02 08:57:35;;;;;;;2.17;1.60;;;9.90;82.90;;;9.64;68.66;93580.09;4977206;28;20257;-81
2021/11/02 09:00:05;;;;;;;1.60;1.50;;;10.00;81.80;;;9.76;68.75;93586.19;4977135;28;20220;-82
2021/11/02 09:02:35;;;;;;;2.00;1.80;;;10.10;81.70;;;9.84;68.50;93577.22;4977384;28;20221;-81
2021/11/02 09:05:17;;;;;;;1.75;1.50;;;10.20;81.80;;;9.98;68.24;93581.28;4961049;28;20220;-81
2021/11/02 09:07:45;;;;;;;1.60;1.50;;;10.30;81.50;;;10.05;68.40;93583.84;4993353;28;20718;-82
2021/11/02 09:10:18;;;;;;;1.73;1.52;;;10.30;81.70;;;10.17;68.22;93582.06;4976628;28;20225;-82
2021/11/02 09:12:49;;;;;;;2.13;1.83;;;10.40;81.60;;;10.27;68.46;93576.28;4960892;28;20210;-81
2021/11/02 09:15:28;;;;;;;2.20;1.48;;;10.50;81.90;;;10.43;68.26;93574.09;4961501;28;20190;-82
2021/11/02 09:17:57;;;;;;;1.70;1.60;;;10.60;81.80;;;10.54;68.43;93573.31;4960580;28;20276;-82
2021/11/02 09:20:25;;;;;;;2.47;1.58;;;10.70;82.00;;;10.56;68.43;93569.44;4961117;28;20193;-82
2021/11/02 09:22:53;;;;;;;1.50;1.40;;;10.80;82.00;;;10.69;68.18;93575.50;4960906;28;20595;-81
2021/11/02 09:25:22;;;;;;;1.92;1.77;;;10.90;81.90;;;10.81;68.21;93583.41;4976747;28;20232;-81
2021/11/02 09:27:50;;;;;;;2.50;1.90;;;11.00;81.80;;;10.91;67.98;93585.47;4960744;28;20218;-81
2021/11/02 09:30:20;;;;;;;3.50;1.83;;;11.10;81.70;;;10.99;67.58;93595.63;4976706;28;20697;-81
2021/11/02 09:32:52;;;;;;;2.72;1.83;;;11.10;81.20;;;11.03;67.64;93594.16;4994204;28;20217;-82
2021/11/02 09:35:28;;;;;;;2.28;1.90;;;11.30;81.40;;;11.03;67.33;93591.53;4976759;28;20194;-82
2021/11/02 09:38:21;;;;;;;2.65;1.90;;;11.40;81.20;;;11.01;67.12;93591.75;4960799;28;20714;-81
2021/11/02 09:41:27;;;;;;;2.20;2.00;;;11.40;81.50;;;10.98;67.23;93581.69;4976648;28;20190;-82
2021/11/02 09:44:22;;;;;;;2.40;1.80;;;11.40;80.70;;;10.95;67.56;93579.53;4992543;28;20193;-82
2021/11/02 09:47:25;;;;;;;3.55;1.70;;;11.40;80.20;;;11.00;67.70;93586.75;4992135;28;20614;-80
2021/11/02 09:50:31;;;;;;;2.08;1.90;;;11.50;80.40;;;11.03;67.70;93581.84;4992466;28;20190;-82
2021/11/02 09:53:20;;;;;;;1.83;1.70;;;11.50;80.70;;;11.10;67.67;93583.56;4976069;28;20229;-81
2021/11/02 09:56:11;;;;;;;2.25;1.85;;;11.50;80.60;;;11.16;67.40;93583.44;4976148;28;20622;-81
2021/11/02 09:58:50;;;;;;;2.67;1.67;;;11.60;80.60;;;11.24;67.35;93579.66;4975917;28;20194;-82
2021/11/02 10:01:23;;;;;;;2.50;1.50;;;11.60;80.90;;;11.31;67.37;93572.47;4976066;28;20320;-82
2021/11/02 10:04:24;;;;;;;2.00;1.63;;;11.70;80.80;;;11.41;67.51;93573.72;4976434;28;20201;-82
2021/11/02 10:07:19;;;;;;;1.85;1.60;;;11.70;80.40;;;11.48;66.99;93575.19;4975842;28;20237;-80
2021/11/02 10:09:54;;;;;;;1.63;1.52;;;11.80;80.40;;;11.56;67.17;93568.00;4976067;28;20194;-81
2021/11/02 10:12:30;;;;;;;1.83;1.50;;;11.90;80.70;;;11.63;66.83;93571.28;4975980;28;20276;-82
2021/11/02 10:15:30;;;;;;;1.90;1.80;;;12.00;80.80;;;11.64;66.92;93555.28;4933168;29;20206;-81
2021/11/02 10:18:43;;;;;;;8.02;5.43;;;12.00;80.50;;;11.79;66.55;93560.06;4956099;28;20197;-80
2021/11/02 10:21:44;;;;;;;5.47;3.42;;;12.10;80.30;;;11.93;66.48;93563.22;4956390;28;20281;-80
2021/11/02 10:25:07;;;;;;;9.90;6.03;;;12.20;80.20;;;12.07;66.14;93561.16;4956117;28;20193;-81
2021/11/02 10:28:17;;;;;;;3.05;2.40;;;12.30;80.10;;;12.23;65.78;93558.81;4941598;28;20286;-82
2021/11/02 10:31:03;;;;;;;1.92;1.70;;;12.40;80.20;;;12.37;65.59;93565.38;4938981;28;20724;-81
2021/11/02 10:33:35;;;;;;;1.40;1.30;;;12.50;80.40;;;12.46;64.39;93566.59;4970957;28;20448;-81
2021/11/02 10:36:46;;;;;;;1.67;1.52;;;12.60;79.50;;;12.49;64.39;93563.47;4957890;28;20217;-80
2021/11/02 10:39:31;;;;;;;1.33;1.23;;;12.70;79.20;;;12.56;64.26;93565.97;4973787;28;20189;-81
2021/11/02 10:42:21;;;;;;;1.98;1.65;;;12.80;79.40;;;12.62;63.78;93565.03;4975085;28;20225;-82
2021/11/02 10:44:52;;;;;;;1.83;1.40;;;12.80;78.50;;;12.60;62.82;93563.66;4991230;28;20174;-81
2021/11/02 10:47:50;;;;;;;1.75;1.25;;;13.00;78.40;;;12.58;62.90;93563.09;4974607;28;20714;-81
2021/11/02 10:50:21;;;;;;;1.25;1.17;;;13.00;77.70;;;12.56;62.86;93565.16;4975248;28;20221;-82
2021/11/02 10:52:59;;;;;;;3.33;2.92;;;13.00;78.00;;;12.61;62.91;93565.25;4972212;28;20228;-81
2021/11/02 10:55:48;;;;;;;6.82;3.78;;;13.00;77.90;;;12.63;62.57;93565.81;4941291;28;20241;-82
2021/11/02 10:58:56;;;;;;;1.70;1.60;;;13.00;77.40;;;12.66;62.70;93560.09;4939141;28;20242;-82
2021/11/02 11:01:24;;;;;;;1.95;1.50;;;13.10;77.80;;;12.73;62.93;93557.28;4878922;29;20224;-81
2021/11/02 11:03:56;;;;;;;1.40;1.30;;;13.10;77.80;;;12.73;62.26;93550.22;4894165;29;20204;-82
2021/11/02 11:06:24;;;;;;;1.25;1.15;;;13.20;77.50;;;12.80;62.39;93565.81;4903099;29;20246;-82
2021/11/02 11:08:54;;;;;;;1.10;1.10;;;13.20;77.50;;;12.78;61.71;93560.81;4922255;29;20634;-83
2021/11/02 11:11:27;;;;;;;1.30;1.20;;;13.20;77.30;;;12.83;62.63;93565.34;4921095;29;20223;-81
2021/11/02 11:14:07;;;;;;;1.30;1.15;;;13.20;77.60;;;12.84;63.04;93555.63;4921364;29;20649;-82
2021/11/02 11:16:43;;;;;;;1.95;1.08;;;13.20;77.70;;;13.00;63.20;93554.03;4922365;28;20621;-81
2021/11/02 11:19:27;;;;;;;1.23;1.13;;;13.40;77.80;;;13.09;62.47;93560.47;4938072;28;20198;-83
2021/11/02 11:22:01;;;;;;;1.45;1.30;;;13.40;77.20;;;13.14;62.30;93555.28;4972437;28;20563;-81
2021/11/02 11:24:42;;;;;;;1.30;1.20;;;13.40;77.50;;;13.24;62.28;93549.38;4940880;28;20253;-82
2021/11/02 11:27:10;;;;;;;1.20;1.20;;;13.50;77.10;;;13.31;62.00;93554.47;4923912;29;20234;-82
2021/11/02 11:29:47;;;;;;;1.17;1.10;;;13.60;77.70;;;13.41;62.44;93554.63;4920920;29;20290;-82
2021/11/02 11:32:17;;;;;;;1.13;1.13;;;13.70;77.50;;;13.53;62.52;93559.81;4921138;29;20281;-82
2021/11/02 11:34:47;;;;;;;1.27;1.17;;;13.80;77.40;;;13.60;62.43;93550.69;4923472;29;20749;-81
2021/11/02 11:37:15;;;;;;;1.75;1.20;;;13.80;77.30;;;13.63;61.56;93559.94;4932366;28;20242;-82
2021/11/02 11:39:44;;;;;;;1.30;1.20;;;14.00;77.40;;;13.59;61.41;93564.09;4943660;28;20684;-82
2021/11/02 11:42:18;;;;;;;1.17;1.10;;;13.90;77.40;;;13.49;61.50;93562.13;4928485;29;20584;-81
2021/11/02 11:44:53;;;;;;;1.60;1.50;;;13.90;76.60;;;13.34;60.00;93565.34;4943044;28;20668;-81
2021/11/02 11:47:25;;;;;;;3.80;2.70;;;13.90;75.40;;;13.20;60.64;93564.06;4945462;28;20232;-81
2021/11/02 11:49:53;;;;;;;1.75;1.58;;;13.90;75.70;;;13.08;60.71;93564.16;4929109;29;20207;-82
2021/11/02 11:52:25;;;;;;;1.33;1.27;;;13.80;75.70;;;13.01;61.33;93560.88;4936775;29;20226;-80
2021/11/02 11:54:56;;;;;;;1.27;1.23;;;13.70;76.00;;;13.00;61.35;93564.53;4939457;28;20193;-81
2021/11/02 11:57:29;;;;;;;5.22;2.38;;;13.60;75.80;;;12.93;60.63;93573.41;4951473;29;20218;-81
2021/11/02 12:00:09;;;;;;;1.63;1.50;;;13.60;75.60;;;12.90;61.16;93568.63;4938726;29;20195;-81
2021/11/02 12:03:22;;;;;;;1.50;1.40;;;13.50;75.70;;;12.82;61.25;93561.91;4943265;28;20232;-81
2021/11/02 12:06:15;;;;;;;1.38;1.27;;;13.40;75.70;;;12.70;61.18;93566.47;4936448;28;20249;-82
2021/11/02 12:09:21;;;;;;;2.85;2.30;;;13.40;75.80;;;12.60;61.40;93561.03;4942237;28;20213;-82
2021/11/02 12:11:50;;;;;;;1.90;1.70;;;13.30;75.90;;;12.57;61.12;93567.56;4916420;29;20281;-82
2021/11/02 12:14:26;;;;;;;1.60;1.27;;;13.20;75.80;;;12.50;61.37;93564.28;4949910;28;20930;-83
2021/11/02 12:17:02;;;;;;;1.55;1.38;;;13.10;75.70;;;12.43;61.59;93564.44;4947588;28;20749;-81
2021/11/02 12:19:38;;;;;;;1.60;1.50;;;13.10;75.90;;;12.38;61.45;93568.78;4969598;28;20201;-82
2021/11/02 12:22:14;;;;;;;1.55;1.45;;;13.00;75.90;;;12.35;61.64;93564.00;4923919;29;20219;-82
2021/11/02 12:24:44;;;;;;;2.35;1.98;;;13.00;76.00;;;12.32;60.82;93565.28;4936807;28;20260;-82
2021/11/02 12:27:16;;;;;;;1.90;1.80;;;12.90;76.10;;;12.30;61.84;93573.41;4951494;28;20732;-82
2021/11/02 12:29:45;;;;;;;1.50;1.40;;;12.90;76.20;;;12.33;61.49;93561.63;4954163;28;20218;-82
2021/11/02 12:32:17;;;;;;;1.85;1.70;;;12.90;76.40;;;12.32;61.67;93563.44;4954194;29;20261;-82
2021/11/02 12:35:09;;;;;;;1.60;1.50;;;12.90;76.60;;;12.40;62.13;93564.91;4953641;29;20203;-82
2021/11/02 12:37:57;;;;;;;1.52;1.30;;;12.80;76.60;;;12.48;62.44;93556.63;4969731;28;20219;-82
2021/11/02 12:40:31;;;;;;;1.70;1.30;;;12.90;76.60;;;12.61;62.22;93560.00;4953207;28;20716;-82
2021/11/02 12:43:31;;;;;;;1.45;1.35;;;13.00;76.70;;;12.68;62.59;93549.31;4961986;28;20233;-83
2021/11/02 12:46:03;;;;;;;2.08;1.83;;;13.00;76.70;;;12.80;62.02;93553.47;4941501;28;20241;-83
2021/11/02 12:48:33;;;;;;;2.60;1.50;;;13.20;76.90;;;12.87;61.75;93553.31;4941986;28;20212;-82
2021/11/02 12:51:21;;;;;;;1.70;1.30;;;13.10;76.80;;;12.87;61.75;93560.41;4958590;28;20722;-82
2021/11/02 12:53:56;;;;;;;1.90;1.80;;;13.20;76.90;;;12.82;60.74;93564.53;4941636;28;20244;-81
2021/11/02 12:56:28;;;;;;;1.90;1.80;;;13.20;76.00;;;12.74;61.17;93553.63;4942447;28;20225;-82
2021/11/02 12:59:17;;;;;;;1.65;1.55;;;13.20;76.00;;;12.69;61.13;93558.81;4960974;28;20195;-82
2021/11/02 13:01:46;;;;;;;1.45;1.35;;;13.20;75.80;;;12.69;61.18;93566.69;4970565;28;20214;-82
2021/11/02 13:04:17;;;;;;;1.50;1.40;;;13.20;76.00;;;12.63;61.33;93565.81;4957907;28;20194;-82
2021/11/02 13:06:53;;;;;;;2.70;2.50;;;13.20;75.80;;;12.76;62.14;93568.13;4941268;28;20692;-81
2021/11/02 13:09:24;;;;;;;1.73;1.63;;;13.20;76.30;;;12.94;62.59;93566.31;4958150;28;20200;-81
2021/11/02 13:12:04;;;;;;;1.58;1.48;;;13.40;77.00;;;13.20;62.55;93558.81;4951964;28;20705;-82
2021/11/02 13:14:48;;;;;;;1.45;1.35;;;13.40;77.00;;;13.49;62.19;93570.03;4944668;28;20216;-82
2021/11/02 13:17:23;;;;;;;2.08;1.80;;;13.60;76.80;;;13.67;61.70;93561.06;4942099;28;20625;-83
2021/11/02 13:19:56;;;;;;;1.85;1.70;;;13.70;76.80;;;13.73;59.38;93565.34;4942073;28;20577;-82
2021/11/02 13:22:26;;;;;;;1.95;1.80;;;13.90;75.90;;;13.70;59.93;93565.81;4941624;28;20313;-81
2021/11/02 13:25:06;;;;;;;2.15;1.60;;;14.00;75.70;;;13.70;59.79;93557.91;4941507;28;20202;-83
2021/11/02 13:27:43;;;;;;;1.52;1.42;;;14.10;75.10;;;13.74;60.18;93564.31;4929288;28;20225;-82
2021/11/02 13:30:37;;;;;;;2.85;1.77;;;14.10;75.60;;;13.99;60.70;93563.00;4946214;28;20197;-80
2021/11/02 13:33:20;;;;;;;2.03;1.83;;;14.30;75.70;;;14.43;61.52;93553.44;4935457;29;20286;-82
2021/11/02 13:36:01;;;;;;;1.50;1.40;;;14.60;76.80;;;14.91;61.46;93549.13;4953715;28;20296;-82
2021/11/02 13:38:33;;;;;;;2.63;1.80;;;14.90;76.90;;;15.34;59.82;93539.41;4939629;28;20253;-82
2021/11/02 13:41:22;;;;;;;1.55;1.40;;;15.40;76.40;;;15.86;60.45;93544.19;4939932;28;20679;-82
2021/11/02 13:43:51;;;;;;;1.55;1.45;;;15.90;76.00;;;16.20;60.03;93549.03;4940953;28;20209;-83
2021/11/02 13:46:24;;;;;;;1.60;1.50;;;16.30;76.00;;;16.33;57.90;93553.84;4924394;28;20728;-82
2021/11/02 13:48:54;;;;;;;2.00;1.67;;;16.60;74.20;;;16.24;55.78;93561.50;4924034;28;20202;-83
2021/11/02 13:51:23;;;;;;;3.13;1.60;;;16.80;72.70;;;16.10;55.87;93555.09;4939016;28;20615;-83
2021/11/02 13:53:52;;;;;;;1.50;1.40;;;16.90;71.80;;;16.00;57.09;93558.50;4937876;28;20345;-83
2021/11/02 13:56:26;;;;;;;1.70;1.60;;;16.80;72.10;;;15.98;57.02;93560.63;4923824;28;20214;-82
2021/11/02 13:58:55;;;;;;;2.55;1.58;;;16.80;72.20;;;16.06;57.33;93565.38;4955951;28;20206;-83
2021/11/02 14:01:45;;;;;;;2.00;1.80;;;16.90;72.40;;;16.03;57.13;93563.28;4925200;28;20222;-84
2021/11/02 14:04:36;;;;;;;1.73;1.63;;;16.90;72.10;;;15.84;56.52;93558.44;4941174;28;20245;-84
2021/11/02 14:07:29;;;;;;;1.95;1.85;;;16.90;71.30;;;15.60;57.01;93567.81;4939864;28;20300;-83
2021/11/02 14:10:04;;;;;;;1.70;1.58;;;16.70;71.20;;;15.34;56.63;93560.53;4940801;28;20214;-83
2021/11/02 14:12:54;;;;;;;1.83;1.60;;;16.50;70.80;;;15.05;57.17;93571.44;4941089;28;20222;-83
2021/11/02 14:15:27;;;;;;;1.80;1.70;;;16.30;70.90;;;14.79;57.42;93570.41;4956387;28;20664;-83
2021/11/02 14:17:57;;;;;;;1.70;1.60;;;15.90;70.80;;;14.55;57.22;93569.94;4940652;28;20288;-83
2021/11/02 14:20:51;;;;;;;1.92;1.80;;;15.70;71.00;;;14.27;57.37;93579.66;4941704;28;20814;-82
2021/11/02 14:23:31;;;;;;;1.60;1.50;;;15.50;71.10;;;14.04;57.96;93578.09;4937928;28;20198;-82
2021/11/02 14:26:19;;;;;;;2.00;1.75;;;15.20;71.20;;;13.83;58.30;93577.84;4975316;28;20217;-82
2021/11/02 14:28:48;;;;;;;2.00;1.60;;;15.00;71.60;;;13.65;58.48;93578.16;4973916;28;20197;-82
2021/11/02 14:31:45;;;;;;;3.05;1.67;;;14.80;72.10;;;13.52;58.79;93593.25;4952109;28;20210;-82
2021/11/02 14:34:28;;;;;;;2.00;1.80;;;14.50;72.50;;;13.41;58.71;93586.25;4954728;28;20198;-83
2021/11/02 14:37:21;;;;;;;2.30;2.00;;;14.40;72.10;;;13.32;58.20;93587.66;4949101;28;20226;-81
2021/11/02 14:40:06;;;;;;;3.03;2.05;;;14.20;72.00;;;13.26;58.68;93587.59;4940478;28;20191;-82
2021/11/02 14:42:52;;;;;;;2.10;1.90;;;14.10;72.20;;;13.24;59.20;93592.31;4937457;28;20226;-81
2021/11/02 14:45:37;;;;;;;2.53;1.90;;;14.00;72.50;;;13.23;58.63;93597.81;4947327;28;20206;-81
2021/11/02 14:48:34;;;;;;;1.92;1.70;;;13.90;72.60;;;13.22;58.78;93590.94;4961022;28;20229;-82
2021/11/02 14:51:05;;;;;;;2.20;2.00;;;13.90;72.70;;;13.25;58.86;93599.16;4950119;28;20213;-81
2021/11/02 14:53:37;;;;;;;1.98;1.88;;;13.80;73.00;;;13.24;58.67;93599.41;4948282;28;20701;-81
2021/11/02 14:56:15;;;;;;;2.15;1.95;;;13.80;73.00;;;13.18;58.49;93609.03;4919047;29;20242;-82
2021/11/02 14:58:52;;;;;;;3.00;2.10;;;13.80;72.70;;;13.03;57.22;93603.56;4919399;29;20206;-82
2021/11/02 15:01:38;;;;;;;2.50;2.10;;;13.70;72.10;;;12.85;57.35;93605.38;4919175;29;20229;-81
2021/11/02 15:04:28;;;;;;;2.25;2.00;;;13.60;71.70;;;12.68;57.38;93607.97;4937878;29;20195;-82
2021/11/02 15:07:00;;;;;;;2.38;2.00;;;13.50;71.70;;;12.56;57.56;93613.31;4920850;29;20325;-81
2021/11/02 15:09:32;;;;;;;2.15;1.95;;;13.40;71.70;;;12.44;58.16;93621.25;4938419;29;20206;-81
2021/11/02 15:12:00;;;;;;;4.28;2.78;;;13.30;71.80;;;12.31;57.49;93624.16;4924831;29;20227;-80
2021/11/02 15:14:32;;;;;;;2.28;2.08;;;13.20;71.90;;;12.17;57.88;93621.81;4924702;29;20283;-81
2021/11/02 15:17:10;;;;;;;2.40;2.20;;;13.00;71.70;;;12.04;58.19;93622.06;4940742;29;20314;-82
2021/11/02 15:19:43;;;;;;;3.05;2.70;;;12.90;71.60;;;11.94;58.34;93627.88;4925474;29;20198;-81
2021/11/02 15:22:17;;;;;;;5.70;4.40;;;12.90;72.10;;;11.85;58.31;93632.72;4940286;29;20223;-81
2021/11/02 15:24:52;;;;;;;7.45;4.53;;;12.70;71.90;;;11.79;58.56;93631.00;4950027;28;20253;-81
2021/11/02 15:27:30;;;;;;;9.73;6.80;;;12.60;72.10;;;11.74;59.38;93633.50;4927859;28;20225;-82
2021/11/02 15:30:08;;;;;;;4.20;3.70;;;12.50;72.20;;;11.68;58.93;93634.44;4947922;28;20218;-81
2021/11/02 15:32:42;;;;;;;5.30;3.75;;;12.40;72.30;;;11.65;59.16;93640.94;4940048;28;20771;-83
2021/11/02 15:35:13;;;;;;;4.35;3.03;;;12.40;72.50;;;11.57;58.54;93637.88;4955701;28;20209;-81
2021/11/02 15:37:48;;;;;;;3.55;3.03;;;12.30;72.60;;;11.55;59.07;93640.72;4941727;28;20230;-81
2021/11/02 15:40:22;;;;;;;4.38;2.90;;;12.20;72.50;;;11.52;59.26;93638.53;4941454;28;20192;-80
2021/11/02 15:42:55;;;;;;;4.45;3.08;;;12.20;73.20;;;11.48;59.30;93645.28;4941909;28;20218;-81
2021/11/02 15:45:43;;;;;;;4.88;3.53;;;12.10;72.80;;;11.42;59.18;93640.97;4960566;28;20704;-82
2021/11/02 15:48:19;;;;;;;5.88;4.05;;;12.10;72.90;;;11.35;59.55;93643.69;4942485;28;20722;-81
2021/11/02 15:50:58;;;;;;;9.02;6.05;;;12.10;72.90;;;11.35;59.55;93644.50;4941801;28;20303;-80
2021/11/02 15:53:29;;;;;;;5.35;3.90;;;12.00;72.80;;;11.27;59.54;93641.41;4941797;28;20199;-81
2021/11/02 15:56:02;;;;;;;3.63;3.00;;;12.00;73.10;;;11.28;59.57;93645.63;4942014;28;20205;-80
2021/11/02 15:58:33;;;;;;;17.20;13.23;;;11.90;73.10;;;11.19;59.65;93643.34;4942905;28;20205;-81
2021/11/02 16:01:01;;;;;;;7.82;6.13;;;11.90;73.20;;;11.18;59.65;93647.00;4943530;28;20219;-81
2021/11/02 16:03:38;;;;;;;5.38;4.53;;;11.90;73.30;;;11.17;59.48;93648.00;4942294;28;20570;-82
2021/11/02 16:06:07;;;;;;;4.85;3.45;;;11.90;73.20;;;11.08;59.49;93643.31;4943373;28;20373;-81
2021/11/02 16:08:35;;;;;;;4.90;4.28;;;11.80;73.30;;;11.08;59.93;93657.22;4942780;28;20253;-82